QLK521 YBWW-YSSY
Flight info
| Callsign | QLK521 |
|---|---|
| Flight time | N/A |
| Altitude | 19000 |
| Route | UPMOG Q872 ALDAR/N0453F340 DCT ADMAR H91 IGDAM/N0457F350 DCT BOREE |
| Aircraft | A320/M-SDE3FGHIRWY/LB1 |
Departure
| Time | 2026-05-07 06:03 |
|---|---|
| Airport | Toowoomba Wellcamp Airport (YBWW) |
Arrival
| Time | N/A |
|---|---|
| Airport | Sydney Kingsford Smith International Airport (YSSY) |
| Time | Latitude | Longitude | Altitude | Speed | Heading |
|---|---|---|---|---|---|
| 2026-05-07 05:36 | -27.56387 | 151.79706 | 1465 ft | 0 kts | 262° |
| 2026-05-07 05:53 | -27.56386 | 151.79709 | 1465 ft | 1 kts | 262° |
| 2026-05-07 05:53 | -27.56384 | 151.79726 | 1465 ft | 3 kts | 262° |
| 2026-05-07 05:54 | -27.56380 | 151.79748 | 1465 ft | 3 kts | 248° |
| 2026-05-07 05:54 | -27.56371 | 151.79768 | 1459 ft | 3 kts | 231° |
| 2026-05-07 05:54 | -27.56359 | 151.79784 | 1462 ft | 3 kts | 259° |
| 2026-05-07 05:54 | -27.56356 | 151.79785 | 1459 ft | 1 kts | 313° |
| 2026-05-07 05:59 | -27.56348 | 151.79776 | 1462 ft | 5 kts | 316° |
| 2026-05-07 05:59 | -27.56309 | 151.79774 | 1462 ft | 7 kts | 33° |
| 2026-05-07 05:59 | -27.56275 | 151.79822 | 1460 ft | 9 kts | 51° |
| 2026-05-07 05:59 | -27.56276 | 151.79882 | 1462 ft | 9 kts | 137° |
| 2026-05-07 06:00 | -27.56323 | 151.79940 | 1462 ft | 11 kts | 132° |
| 2026-05-07 06:00 | -27.56377 | 151.80008 | 1465 ft | 13 kts | 133° |
| 2026-05-07 06:00 | -27.56418 | 151.80057 | 1465 ft | 12 kts | 133° |
| 2026-05-07 06:00 | -27.56482 | 151.80134 | 1463 ft | 14 kts | 133° |
| 2026-05-07 06:01 | -27.56578 | 151.80252 | 1465 ft | 16 kts | 133° |
| 2026-05-07 06:01 | -27.56631 | 151.80316 | 1465 ft | 18 kts | 133° |
| 2026-05-07 06:01 | -27.56694 | 151.80393 | 1465 ft | 8 kts | 130° |
| 2026-05-07 06:01 | -27.56711 | 151.80465 | 1464 ft | 12 kts | 77° |
| 2026-05-07 06:02 | -27.56653 | 151.80544 | 1462 ft | 14 kts | 43° |
| 2026-05-07 06:02 | -27.56609 | 151.80566 | 1463 ft | 5 kts | 327° |
| 2026-05-07 06:02 | -27.56572 | 151.80518 | 1463 ft | 15 kts | 312° |
| 2026-05-07 06:02 | -27.56353 | 151.80250 | 1460 ft | 79 kts | 312° |
| 2026-05-07 06:03 | -27.55846 | 151.79635 | 1463 ft | 132 kts | 313° |
| 2026-05-07 06:03 | -27.55121 | 151.78756 | 1517 ft | 168 kts | 307° |
| 2026-05-07 06:03 | -27.54395 | 151.77740 | 2124 ft | 165 kts | 291° |
| 2026-05-07 06:03 | -27.54172 | 151.76507 | 2770 ft | 161 kts | 262° |
| 2026-05-07 06:04 | -27.54628 | 151.75361 | 3312 ft | 169 kts | 231° |
| 2026-05-07 06:04 | -27.55727 | 151.74668 | 3539 ft | 200 kts | 193° |
| 2026-05-07 06:04 | -27.57209 | 151.74819 | 3946 ft | 222 kts | 173° |
| 2026-05-07 06:04 | -27.58703 | 151.75297 | 4756 ft | 225 kts | 168° |
| 2026-05-07 06:05 | -27.60182 | 151.75889 | 5470 ft | 229 kts | 167° |
| 2026-05-07 06:05 | -27.61686 | 151.76549 | 6114 ft | 235 kts | 167° |
| 2026-05-07 06:05 | -27.63241 | 151.77145 | 6731 ft | 240 kts | 171° |
| 2026-05-07 06:05 | -27.64886 | 151.77668 | 7344 ft | 243 kts | 172° |
| 2026-05-07 06:06 | -27.66472 | 151.78184 | 8214 ft | 239 kts | 171° |
| 2026-05-07 06:06 | -27.68086 | 151.78722 | 8838 ft | 246 kts | 171° |
| 2026-05-07 06:06 | -27.69740 | 151.79274 | 9513 ft | 250 kts | 170° |
| 2026-05-07 06:06 | -27.71417 | 151.79836 | 10181 ft | 253 kts | 170° |
| 2026-05-07 06:07 | -27.73113 | 151.80406 | 10817 ft | 256 kts | 171° |
| 2026-05-07 06:07 | -27.74872 | 151.80754 | 11259 ft | 265 kts | 180° |
| 2026-05-07 06:07 | -27.76780 | 151.80998 | 11463 ft | 288 kts | 180° |
| 2026-05-07 06:07 | -27.78851 | 151.81245 | 11652 ft | 311 kts | 179° |
| 2026-05-07 06:08 | -27.81082 | 151.81511 | 11800 ft | 334 kts | 179° |
| 2026-05-07 06:08 | -27.83468 | 151.81803 | 12006 ft | 353 kts | 178° |
| 2026-05-07 06:08 | -27.85943 | 151.82118 | 12559 ft | 360 kts | 178° |
| 2026-05-07 06:08 | -27.88445 | 151.82444 | 13208 ft | 364 kts | 178° |
| 2026-05-07 06:09 | -27.90976 | 151.82777 | 13849 ft | 368 kts | 178° |
| 2026-05-07 06:09 | -27.93531 | 151.83112 | 14402 ft | 372 kts | 178° |
| 2026-05-07 06:09 | -27.96116 | 151.83446 | 14954 ft | 375 kts | 179° |
| 2026-05-07 06:09 | -27.98723 | 151.83779 | 15504 ft | 379 kts | 179° |
| 2026-05-07 06:10 | -28.01354 | 151.84147 | 16039 ft | 384 kts | 177° |
| 2026-05-07 06:10 | -28.04008 | 151.84653 | 16570 ft | 389 kts | 175° |
| 2026-05-07 06:10 | -28.06677 | 151.85257 | 17107 ft | 394 kts | 174° |
| 2026-05-07 06:10 | -28.09368 | 151.85911 | 17661 ft | 398 kts | 173° |
| 2026-05-07 06:11 | -28.12087 | 151.86577 | 18224 ft | 402 kts | 174° |
| 2026-05-07 06:11 | -28.14796 | 151.87227 | 18736 ft | 405 kts | 174° |
| 2026-05-07 06:11 | -28.17558 | 151.87873 | 19220 ft | 406 kts | 175° |
| 2026-05-07 06:11 | -28.20352 | 151.88510 | 19698 ft | 411 kts | 175° |
| 2026-05-07 06:12 | -28.23172 | 151.89142 | 20190 ft | 415 kts | 175° |
| 2026-05-07 06:12 | -28.26021 | 151.89776 | 20678 ft | 419 kts | 175° |
| 2026-05-07 06:12 | -28.28899 | 151.90418 | 21164 ft | 423 kts | 176° |
| 2026-05-07 06:12 | -28.31804 | 151.91069 | 21625 ft | 427 kts | 176° |
| 2026-05-07 06:13 | -28.34740 | 151.91730 | 22075 ft | 432 kts | 176° |
| 2026-05-07 06:13 | -28.37699 | 151.92400 | 22507 ft | 436 kts | 176° |
| 2026-05-07 06:13 | -28.40684 | 151.93080 | 22916 ft | 440 kts | 176° |
| 2026-05-07 06:13 | -28.43693 | 151.93763 | 23377 ft | 443 kts | 176° |
| 2026-05-07 06:14 | -28.46729 | 151.94448 | 23780 ft | 446 kts | 176° |
| 2026-05-07 06:14 | -28.49782 | 151.95138 | 24113 ft | 449 kts | 176° |
| 2026-05-07 06:14 | -28.52863 | 151.95836 | 24442 ft | 453 kts | 176° |
| 2026-05-07 06:14 | -28.55964 | 151.96538 | 24763 ft | 456 kts | 177° |
| 2026-05-07 06:15 | -28.59094 | 151.97213 | 25075 ft | 459 kts | 178° |
| 2026-05-07 06:15 | -28.62245 | 151.97855 | 25391 ft | 462 kts | 179° |
| 2026-05-07 06:15 | -28.65420 | 151.98482 | 25703 ft | 465 kts | 179° |
| 2026-05-07 06:15 | -28.68621 | 151.99109 | 26007 ft | 468 kts | 179° |
| 2026-05-07 06:16 | -28.71838 | 151.99742 | 26353 ft | 471 kts | 179° |
| 2026-05-07 06:16 | -28.75078 | 152.00391 | 26666 ft | 474 kts | 179° |
| 2026-05-07 06:16 | -28.78340 | 152.01054 | 26969 ft | 478 kts | 179° |
| 2026-05-07 06:16 | -28.81623 | 152.01726 | 27233 ft | 480 kts | 179° |
| 2026-05-07 06:17 | -28.84918 | 152.02403 | 27513 ft | 483 kts | 179° |
| 2026-05-07 06:17 | -28.88235 | 152.03084 | 27824 ft | 486 kts | 179° |
| 2026-05-07 06:17 | -28.91584 | 152.03769 | 28125 ft | 489 kts | 179° |
| 2026-05-07 06:17 | -28.94938 | 152.04456 | 28420 ft | 492 kts | 180° |
| 2026-05-07 06:18 | -28.98312 | 152.05149 | 28752 ft | 494 kts | 179° |
| 2026-05-07 06:18 | -29.01696 | 152.05848 | 29184 ft | 494 kts | 179° |
| 2026-05-07 06:18 | -29.05072 | 152.06548 | 29634 ft | 493 kts | 179° |
| 2026-05-07 06:18 | -29.08405 | 152.07236 | 30058 ft | 493 kts | 180° |
| 2026-05-07 06:19 | -29.11781 | 152.07928 | 30407 ft | 493 kts | 180° |
| 2026-05-07 06:19 | -29.15157 | 152.08618 | 30767 ft | 492 kts | 180° |
| 2026-05-07 06:19 | -29.18535 | 152.09310 | 31121 ft | 492 kts | 180° |
| 2026-05-07 06:19 | -29.21903 | 152.10005 | 31503 ft | 492 kts | 180° |
| 2026-05-07 06:20 | -29.25271 | 152.10698 | 31965 ft | 491 kts | 180° |
| 2026-05-07 06:20 | -29.26846 | 152.11024 | 32171 ft | 491 kts | 180° |
| 2026-05-07 06:20 | -29.29272 | 152.11525 | 32430 ft | 490 kts | 180° |
| 2026-05-07 06:20 | -29.32632 | 152.12214 | 32747 ft | 490 kts | 180° |
| 2026-05-07 06:21 | -29.35988 | 152.12899 | 33098 ft | 490 kts | 180° |
| 2026-05-07 06:21 | -29.39344 | 152.13590 | 33479 ft | 490 kts | 180° |
| 2026-05-07 06:21 | -29.42690 | 152.14282 | 33842 ft | 490 kts | 181° |
| 2026-05-07 06:21 | -29.46044 | 152.14981 | 34161 ft | 489 kts | 181° |
| 2026-05-07 06:22 | -29.49393 | 152.15681 | 34479 ft | 489 kts | 181° |
| 2026-05-07 06:22 | -29.56087 | 152.17031 | 35002 ft | 483 kts | 186° |
| 2026-05-07 06:22 | -29.59395 | 152.17164 | 35051 ft | 470 kts | 197° |
| 2026-05-07 06:23 | -29.62578 | 152.16660 | 35045 ft | 456 kts | 206° |
| 2026-05-07 06:23 | -29.65583 | 152.15654 | 35053 ft | 447 kts | 211° |
| 2026-05-07 06:23 | -29.71525 | 152.13429 | 35052 ft | 450 kts | 211° |
| 2026-05-07 06:24 | -29.76528 | 152.11635 | 35089 ft | 450 kts | 210° |
| 2026-05-07 06:24 | -29.80543 | 152.10198 | 35052 ft | 448 kts | 210° |
| 2026-05-07 06:25 | -29.86487 | 152.08036 | 35062 ft | 448 kts | 210° |
| 2026-05-07 06:25 | -29.92429 | 152.05853 | 35056 ft | 448 kts | 210° |
| 2026-05-07 06:26 | -29.98367 | 152.03670 | 35058 ft | 449 kts | 210° |
| 2026-05-07 06:26 | -30.04325 | 152.01492 | 35088 ft | 449 kts | 210° |
| 2026-05-07 06:27 | -30.10243 | 151.99324 | 35077 ft | 449 kts | 210° |
| 2026-05-07 06:27 | -30.16231 | 151.97098 | 35055 ft | 461 kts | 210° |
| 2026-05-07 06:28 | -30.22376 | 151.94822 | 35058 ft | 465 kts | 210° |
| 2026-05-07 06:28 | -30.28552 | 151.92546 | 35050 ft | 466 kts | 209° |
| 2026-05-07 06:29 | -30.34711 | 151.90201 | 35065 ft | 463 kts | 212° |
| 2026-05-07 06:29 | -30.40677 | 151.87478 | 35068 ft | 459 kts | 214° |
| 2026-05-07 06:30 | -30.46549 | 151.84590 | 35086 ft | 459 kts | 215° |
| 2026-05-07 06:30 | -30.52460 | 151.81757 | 35077 ft | 460 kts | 214° |
| 2026-05-07 06:31 | -30.58407 | 151.79002 | 35084 ft | 461 kts | 213° |
| 2026-05-07 06:31 | -30.64379 | 151.76247 | 35089 ft | 461 kts | 213° |
| 2026-05-07 06:32 | -30.70328 | 151.73471 | 35097 ft | 460 kts | 214° |
| 2026-05-07 06:32 | -30.76267 | 151.70673 | 35089 ft | 461 kts | 214° |
| 2026-05-07 06:33 | -30.82214 | 151.67878 | 35100 ft | 461 kts | 214° |
| 2026-05-07 06:33 | -30.88170 | 151.65086 | 35098 ft | 462 kts | 214° |
| 2026-05-07 06:34 | -30.94118 | 151.62297 | 35093 ft | 459 kts | 214° |
| 2026-05-07 06:34 | -31.00047 | 151.59509 | 35097 ft | 459 kts | 214° |
| 2026-05-07 06:35 | -31.05967 | 151.56716 | 35113 ft | 459 kts | 214° |
| 2026-05-07 06:35 | -31.11852 | 151.53940 | 35128 ft | 459 kts | 214° |
| 2026-05-07 06:36 | -31.17759 | 151.51156 | 35107 ft | 457 kts | 215° |
| 2026-05-07 06:36 | -31.23657 | 151.48370 | 35106 ft | 457 kts | 215° |
| 2026-05-07 06:37 | -31.29549 | 151.45571 | 35109 ft | 458 kts | 215° |
| 2026-05-07 06:37 | -31.35454 | 151.42757 | 35165 ft | 458 kts | 215° |
| 2026-05-07 06:38 | -31.41371 | 151.39964 | 35157 ft | 459 kts | 214° |
| 2026-05-07 06:38 | -31.47357 | 151.37291 | 35141 ft | 461 kts | 214° |
| 2026-05-07 06:39 | -31.53353 | 151.34665 | 35137 ft | 461 kts | 214° |
| 2026-05-07 06:39 | -31.59331 | 151.32014 | 35115 ft | 455 kts | 214° |
| 2026-05-07 06:40 | -31.65213 | 151.29393 | 35114 ft | 451 kts | 215° |
| 2026-05-07 06:40 | -31.71080 | 151.26740 | 35114 ft | 452 kts | 215° |
| 2026-05-07 06:41 | -31.76866 | 151.24123 | 35123 ft | 452 kts | 215° |
| 2026-05-07 06:41 | -31.82721 | 151.21483 | 35155 ft | 450 kts | 214° |
| 2026-05-07 06:42 | -31.88568 | 151.18857 | 35148 ft | 450 kts | 214° |
| 2026-05-07 06:42 | -31.94405 | 151.16228 | 34763 ft | 444 kts | 214° |
| 2026-05-07 06:43 | -31.97271 | 151.14957 | 34482 ft | 434 kts | 215° |
| 2026-05-07 06:43 | -32.00058 | 151.13734 | 34442 ft | 420 kts | 215° |
| 2026-05-07 06:43 | -32.02754 | 151.12548 | 34355 ft | 407 kts | 215° |
| 2026-05-07 06:43 | -32.05366 | 151.11389 | 34268 ft | 395 kts | 216° |
| 2026-05-07 06:44 | -32.10453 | 151.09073 | 34113 ft | 395 kts | 217° |
| 2026-05-07 06:44 | -32.13054 | 151.07857 | 33857 ft | 409 kts | 216° |
| 2026-05-07 06:44 | -32.15734 | 151.06613 | 33593 ft | 417 kts | 215° |
| 2026-05-07 06:45 | -32.18452 | 151.05377 | 33335 ft | 421 kts | 214° |
| 2026-05-07 06:45 | -32.21195 | 151.04151 | 33119 ft | 422 kts | 214° |
| 2026-05-07 06:45 | -32.23935 | 151.02942 | 32857 ft | 419 kts | 213° |
| 2026-05-07 06:45 | -32.26653 | 151.01742 | 32604 ft | 416 kts | 213° |
| 2026-05-07 06:46 | -32.29357 | 151.00538 | 32356 ft | 414 kts | 213° |
| 2026-05-07 06:46 | -32.32047 | 150.99328 | 32101 ft | 413 kts | 213° |
| 2026-05-07 06:46 | -32.34736 | 150.98107 | 31856 ft | 417 kts | 213° |
| 2026-05-07 06:46 | -32.36770 | 150.97176 | 31671 ft | 421 kts | 212° |
| 2026-05-07 06:47 | -32.39103 | 150.96111 | 31458 ft | 422 kts | 212° |
| 2026-05-07 06:47 | -32.42774 | 150.94446 | 31134 ft | 422 kts | 212° |
| 2026-05-07 06:47 | -32.44598 | 150.93622 | 30977 ft | 422 kts | 212° |
| 2026-05-07 06:48 | -32.47374 | 150.92455 | 30731 ft | 429 kts | 206° |
| 2026-05-07 06:48 | -32.50357 | 150.91817 | 30494 ft | 444 kts | 195° |
| 2026-05-07 06:48 | -32.54531 | 150.92039 | 30181 ft | 463 kts | 182° |
| 2026-05-07 06:48 | -32.56689 | 150.92425 | 29994 ft | 463 kts | 182° |
| 2026-05-07 06:49 | -32.59839 | 150.92996 | 29514 ft | 464 kts | 182° |
| 2026-05-07 06:49 | -32.63063 | 150.93582 | 28803 ft | 460 kts | 182° |
| 2026-05-07 06:49 | -32.66172 | 150.94147 | 28156 ft | 455 kts | 182° |
| 2026-05-07 06:49 | -32.69258 | 150.94707 | 27723 ft | 443 kts | 182° |
| 2026-05-07 06:50 | -32.72277 | 150.95251 | 27177 ft | 435 kts | 182° |
| 2026-05-07 06:50 | -32.75248 | 150.95780 | 26592 ft | 429 kts | 182° |
| 2026-05-07 06:50 | -32.78187 | 150.96296 | 25994 ft | 423 kts | 183° |
| 2026-05-07 06:50 | -32.81083 | 150.96799 | 25416 ft | 418 kts | 183° |
| 2026-05-07 06:51 | -32.83941 | 150.97298 | 24880 ft | 413 kts | 183° |
| 2026-05-07 06:51 | -32.86764 | 150.97800 | 24328 ft | 407 kts | 183° |
| 2026-05-07 06:51 | -32.89554 | 150.98301 | 23780 ft | 403 kts | 183° |
| 2026-05-07 06:51 | -32.92308 | 150.98793 | 23243 ft | 399 kts | 181° |
| 2026-05-07 06:52 | -32.95038 | 150.99277 | 22599 ft | 395 kts | 181° |
| 2026-05-07 06:52 | -32.97740 | 150.99761 | 22001 ft | 390 kts | 181° |
| 2026-05-07 06:52 | -33.00412 | 151.00242 | 21438 ft | 386 kts | 181° |
| 2026-05-07 06:52 | -33.03057 | 151.00714 | 20897 ft | 382 kts | 181° |
| 2026-05-07 06:53 | -33.05678 | 151.01179 | 20301 ft | 380 kts | 181° |
| 2026-05-07 06:53 | -33.08250 | 151.01633 | 19463 ft | 375 kts | 181° |
| 2026-05-07 06:53 | -33.10845 | 151.02095 | 18650 ft | 367 kts | 181° |
| 2026-05-07 06:53 | -33.13313 | 151.02544 | 18074 ft | 351 kts | 181° |
| 2026-05-07 06:54 | -33.15652 | 151.02971 | 17586 ft | 341 kts | 180° |
| 2026-05-07 06:54 | -33.17994 | 151.03391 | 17017 ft | 341 kts | 179° |
| 2026-05-07 06:54 | -33.20335 | 151.03808 | 16495 ft | 339 kts | 179° |
| 2026-05-07 06:54 | -33.22660 | 151.04221 | 15984 ft | 337 kts | 179° |
| 2026-05-07 06:55 | -33.24974 | 151.04632 | 15484 ft | 336 kts | 178° |
| 2026-05-07 06:55 | -33.27281 | 151.05062 | 14954 ft | 335 kts | 177° |
| 2026-05-07 06:55 | -33.29577 | 151.05507 | 14443 ft | 334 kts | 177° |
| 2026-05-07 06:55 | -33.31866 | 151.05954 | 13925 ft | 332 kts | 176° |
| 2026-05-07 06:56 | -33.33435 | 151.06258 | 13535 ft | 331 kts | 176° |
| 2026-05-07 06:56 | -33.34440 | 151.06452 | 13263 ft | 331 kts | 176° |
| 2026-05-07 06:56 | -33.36700 | 151.06890 | 12786 ft | 326 kts | 176° |
| 2026-05-07 06:56 | -33.38933 | 151.07320 | 12286 ft | 324 kts | 176° |
| 2026-05-07 06:57 | -33.41150 | 151.07741 | 11789 ft | 321 kts | 176° |
| 2026-05-07 06:57 | -33.43344 | 151.08161 | 11285 ft | 320 kts | 176° |
| 2026-05-07 06:57 | -33.44620 | 151.08407 | 10987 ft | 319 kts | 176° |
| 2026-05-07 06:57 | -33.46801 | 151.08826 | 10541 ft | 315 kts | 176° |
| 2026-05-07 06:58 | -33.48884 | 151.09230 | 10414 ft | 300 kts | 176° |
| 2026-05-07 06:58 | -33.50905 | 151.09625 | 10290 ft | 289 kts | 176° |
| 2026-05-07 06:58 | -33.52854 | 151.10006 | 10163 ft | 279 kts | 176° |
| 2026-05-07 06:58 | -33.54733 | 151.10371 | 10031 ft | 269 kts | 176° |
| 2026-05-07 06:59 | -33.56548 | 151.10720 | 10023 ft | 264 kts | 176° |
| 2026-05-07 06:59 | -33.58363 | 151.11063 | 10026 ft | 264 kts | 176° |
| 2026-05-07 06:59 | -33.60176 | 151.11405 | 10026 ft | 264 kts | 176° |
| 2026-05-07 07:00 | -33.64209 | 151.12181 | 10026 ft | 264 kts | 176° |
| 2026-05-07 07:00 | -33.65999 | 151.12537 | 10027 ft | 258 kts | 176° |
| 2026-05-07 07:00 | -33.67765 | 151.12885 | 10023 ft | 257 kts | 176° |
| 2026-05-07 07:00 | -33.69529 | 151.13231 | 10023 ft | 257 kts | 176° |
| 2026-05-07 07:01 | -33.71303 | 151.13582 | 10022 ft | 257 kts | 176° |
| 2026-05-07 07:01 | -33.73033 | 151.13921 | 10021 ft | 257 kts | 176° |
| 2026-05-07 07:01 | -33.74797 | 151.14263 | 10019 ft | 257 kts | 176° |